sensor_id;sensor_type;location;lat;lon;timestamp;P1;durP1;ratioP1;P2;durP2;ratioP2
3309;SDS011;1667;53.238;10.394;2023-02-03T00:02:44;2.50;;;0.90;;
3309;SDS011;1667;53.238;10.394;2023-02-03T00:07:45;1.10;;;1.00;;
3309;SDS011;1667;53.238;10.394;2023-02-03T00:12:44;1.60;;;1.40;;
3309;SDS011;1667;53.238;10.394;2023-02-03T00:17:42;1.87;;;1.23;;
3309;SDS011;1667;53.238;10.394;2023-02-03T00:22:40;1.53;;;1.10;;
3309;SDS011;1667;53.238;10.394;2023-02-03T00:27:40;1.33;;;1.03;;
3309;SDS011;1667;53.238;10.394;2023-02-03T00:32:39;1.20;;;1.10;;
3309;SDS011;1667;53.238;10.394;2023-02-03T00:37:37;1.20;;;1.10;;
3309;SDS011;1667;53.238;10.394;2023-02-03T00:42:36;0.93;;;0.93;;
3309;SDS011;1667;53.238;10.394;2023-02-03T00:47:35;1.20;;;1.10;;
3309;SDS011;1667;53.238;10.394;2023-02-03T00:52:34;1.30;;;1.20;;
3309;SDS011;1667;53.238;10.394;2023-02-03T00:57:32;1.57;;;1.47;;
3309;SDS011;1667;53.238;10.394;2023-02-03T01:02:31;1.53;;;1.30;;
3309;SDS011;1667;53.238;10.394;2023-02-03T01:07:31;1.97;;;1.87;;
3309;SDS011;1667;53.238;10.394;2023-02-03T01:12:30;2.67;;;2.47;;
3309;SDS011;1667;53.238;10.394;2023-02-03T01:17:29;2.83;;;2.50;;
3309;SDS011;1667;53.238;10.394;2023-02-03T01:22:27;3.07;;;2.80;;
3309;SDS011;1667;53.238;10.394;2023-02-03T01:27:28;4.33;;;3.17;;
3309;SDS011;1667;53.238;10.394;2023-02-03T01:32:28;4.73;;;3.10;;
3309;SDS011;1667;53.238;10.394;2023-02-03T01:37:27;7.47;;;4.13;;
3309;SDS011;1667;53.238;10.394;2023-02-03T01:42:25;5.90;;;2.00;;
3309;SDS011;1667;53.238;10.394;2023-02-03T01:47:29;4.73;;;3.97;;
3309;SDS011;1667;53.238;10.394;2023-02-03T01:52:30;12.73;;;5.40;;
3309;SDS011;1667;53.238;10.394;2023-02-03T01:57:33;4.90;;;4.00;;
3309;SDS011;1667;53.238;10.394;2023-02-03T02:02:34;7.10;;;4.00;;
3309;SDS011;1667;53.238;10.394;2023-02-03T02:07:33;5.30;;;2.93;;
3309;SDS011;1667;53.238;10.394;2023-02-03T02:12:35;7.03;;;4.57;;
3309;SDS011;1667;53.238;10.394;2023-02-03T02:17:50;4.17;;;3.27;;
3309;SDS011;1667;53.238;10.394;2023-02-03T02:34:03;4.80;;;3.40;;
3309;SDS011;1667;53.238;10.394;2023-02-03T02:39:11;10.33;;;6.73;;
3309;SDS011;1667;53.238;10.394;2023-02-03T02:44:15;10.63;;;6.13;;
3309;SDS011;1667;53.238;10.394;2023-02-03T02:49:19;8.07;;;5.90;;
3309;SDS011;1667;53.238;10.394;2023-02-03T02:54:23;11.37;;;6.43;;
3309;SDS011;1667;53.238;10.394;2023-02-03T02:59:24;8.33;;;5.17;;
3309;SDS011;1667;53.238;10.394;2023-02-03T03:04:25;7.87;;;5.27;;
3309;SDS011;1667;53.238;10.394;2023-02-03T03:09:28;8.13;;;4.90;;
3309;SDS011;1667;53.238;10.394;2023-02-03T03:14:32;7.47;;;5.23;;
3309;SDS011;1667;53.238;10.394;2023-02-03T03:19:36;5.73;;;4.27;;
3309;SDS011;1667;53.238;10.394;2023-02-03T03:24:38;8.00;;;4.20;;
3309;SDS011;1667;53.238;10.394;2023-02-03T03:29:42;10.43;;;5.87;;
3309;SDS011;1667;53.238;10.394;2023-02-03T03:34:47;2.53;;;1.80;;
3309;SDS011;1667;53.238;10.394;2023-02-03T03:39:47;4.40;;;4.03;;
3309;SDS011;1667;53.238;10.394;2023-02-03T03:44:52;5.23;;;3.53;;
3309;SDS011;1667;53.238;10.394;2023-02-03T03:49:56;3.03;;;2.83;;
3309;SDS011;1667;53.238;10.394;2023-02-03T03:54:58;4.83;;;3.27;;
3309;SDS011;1667;53.238;10.394;2023-02-03T03:59:58;8.60;;;6.03;;
3309;SDS011;1667;53.238;10.394;2023-02-03T04:05:08;3.57;;;3.23;;
3309;SDS011;1667;53.238;10.394;2023-02-03T04:10:11;8.73;;;3.80;;
3309;SDS011;1667;53.238;10.394;2023-02-03T04:15:15;3.10;;;2.90;;
3309;SDS011;1667;53.238;10.394;2023-02-03T04:20:15;6.43;;;3.80;;
3309;SDS011;1667;53.238;10.394;2023-02-03T04:25:15;6.47;;;3.70;;
3309;SDS011;1667;53.238;10.394;2023-02-03T04:30:14;2.93;;;2.73;;
3309;SDS011;1667;53.238;10.394;2023-02-03T04:35:15;1.80;;;1.37;;
3309;SDS011;1667;53.238;10.394;2023-02-03T04:40:14;2.70;;;2.40;;
3309;SDS011;1667;53.238;10.394;2023-02-03T04:45:12;6.97;;;3.80;;
3309;SDS011;1667;53.238;10.394;2023-02-03T04:50:11;15.47;;;5.10;;
3309;SDS011;1667;53.238;10.394;2023-02-03T04:55:11;5.90;;;3.67;;
3309;SDS011;1667;53.238;10.394;2023-02-03T05:00:10;4.00;;;3.00;;
3309;SDS011;1667;53.238;10.394;2023-02-03T05:05:09;5.40;;;2.60;;
3309;SDS011;1667;53.238;10.394;2023-02-03T05:10:08;3.50;;;3.20;;
3309;SDS011;1667;53.238;10.394;2023-02-03T05:15:09;5.53;;;3.67;;
3309;SDS011;1667;53.238;10.394;2023-02-03T05:20:08;3.40;;;2.40;;
3309;SDS011;1667;53.238;10.394;2023-02-03T05:25:07;6.60;;;4.17;;
3309;SDS011;1667;53.238;10.394;2023-02-03T05:30:08;7.60;;;3.77;;
3309;SDS011;1667;53.238;10.394;2023-02-03T05:35:07;4.27;;;2.70;;
3309;SDS011;1667;53.238;10.394;2023-02-03T05:40:06;4.40;;;2.67;;
3309;SDS011;1667;53.238;10.394;2023-02-03T05:45:25;5.47;;;3.03;;
3309;SDS011;1667;53.238;10.394;2023-02-03T05:50:23;5.13;;;2.87;;
3309;SDS011;1667;53.238;10.394;2023-02-03T05:55:23;3.63;;;2.63;;
3309;SDS011;1667;53.238;10.394;2023-02-03T06:00:21;2.50;;;2.30;;
3309;SDS011;1667;53.238;10.394;2023-02-03T06:05:22;2.60;;;2.40;;
3309;SDS011;1667;53.238;10.394;2023-02-03T06:17:16;2.00;;;1.87;;
3309;SDS011;1667;53.238;10.394;2023-02-03T06:22:16;2.30;;;2.00;;
3309;SDS011;1667;53.238;10.394;2023-02-03T06:27:14;2.53;;;1.83;;
3309;SDS011;1667;53.238;10.394;2023-02-03T06:32:13;1.90;;;1.80;;
3309;SDS011;1667;53.238;10.394;2023-02-03T06:37:11;1.70;;;1.13;;
3309;SDS011;1667;53.238;10.394;2023-02-03T06:42:11;8.33;;;1.90;;
3309;SDS011;1667;53.238;10.394;2023-02-03T06:47:10;3.97;;;3.00;;
3309;SDS011;1667;53.238;10.394;2023-02-03T06:52:09;1.70;;;1.60;;
3309;SDS011;1667;53.238;10.394;2023-02-03T06:57:07;1.70;;;1.60;;
3309;SDS011;1667;53.238;10.394;2023-02-03T07:02:08;3.73;;;1.70;;
3309;SDS011;1667;53.238;10.394;2023-02-03T07:07:07;2.43;;;1.67;;
3309;SDS011;1667;53.238;10.394;2023-02-03T07:12:05;3.30;;;1.90;;
3309;SDS011;1667;53.238;10.394;2023-02-03T07:17:05;2.10;;;2.00;;
3309;SDS011;1667;53.238;10.394;2023-02-03T07:22:04;1.70;;;1.60;;
3309;SDS011;1667;53.238;10.394;2023-02-03T07:27:03;2.93;;;2.20;;
3309;SDS011;1667;53.238;10.394;2023-02-03T07:32:01;2.47;;;1.97;;
3309;SDS011;1667;53.238;10.394;2023-02-03T07:37:00;2.63;;;2.30;;
3309;SDS011;1667;53.238;10.394;2023-02-03T07:42:00;4.47;;;2.27;;
3309;SDS011;1667;53.238;10.394;2023-02-03T07:47:04;2.00;;;1.90;;
3309;SDS011;1667;53.238;10.394;2023-02-03T07:52:03;2.03;;;1.83;;
3309;SDS011;1667;53.238;10.394;2023-02-03T07:57:03;1.67;;;1.57;;
3309;SDS011;1667;53.238;10.394;2023-02-03T08:02:01;2.10;;;1.40;;
3309;SDS011;1667;53.238;10.394;2023-02-03T08:07:00;11.00;;;1.90;;
3309;SDS011;1667;53.238;10.394;2023-02-03T08:18:00;1.97;;;1.50;;
3309;SDS011;1667;53.238;10.394;2023-02-03T08:22:58;2.80;;;1.93;;
3309;SDS011;1667;53.238;10.394;2023-02-03T08:27:57;5.43;;;1.53;;
3309;SDS011;1667;53.238;10.394;2023-02-03T08:32:56;5.07;;;2.10;;
3309;SDS011;1667;53.238;10.394;2023-02-03T08:37:55;3.03;;;1.20;;
3309;SDS011;1667;53.238;10.394;2023-02-03T08:42:54;2.03;;;1.27;;
3309;SDS011;1667;53.238;10.394;2023-02-03T08:47:52;3.83;;;1.20;;
3309;SDS011;1667;53.238;10.394;2023-02-03T08:52:51;11.73;;;2.17;;
3309;SDS011;1667;53.238;10.394;2023-02-03T08:57:50;21.70;;;3.13;;
3309;SDS011;1667;53.238;10.394;2023-02-03T09:02:49;2.87;;;1.27;;
3309;SDS011;1667;53.238;10.394;2023-02-03T09:07:48;7.17;;;1.70;;
3309;SDS011;1667;53.238;10.394;2023-02-03T09:12:46;9.07;;;1.90;;
3309;SDS011;1667;53.238;10.394;2023-02-03T09:17:46;12.93;;;2.27;;
3309;SDS011;1667;53.238;10.394;2023-02-03T09:22:45;4.73;;;1.93;;
3309;SDS011;1667;53.238;10.394;2023-02-03T09:27:44;12.30;;;2.43;;
3309;SDS011;1667;53.238;10.394;2023-02-03T09:32:42;4.47;;;1.43;;
3309;SDS011;1667;53.238;10.394;2023-02-03T09:37:45;4.80;;;2.17;;
3309;SDS011;1667;53.238;10.394;2023-02-03T09:42:54;11.57;;;1.80;;
3309;SDS011;1667;53.238;10.394;2023-02-03T09:48:02;10.57;;;2.27;;
3309;SDS011;1667;53.238;10.394;2023-02-03T09:53:05;13.30;;;4.10;;
3309;SDS011;1667;53.238;10.394;2023-02-03T09:58:11;17.27;;;4.53;;
3309;SDS011;1667;53.238;10.394;2023-02-03T10:03:13;16.40;;;3.07;;
3309;SDS011;1667;53.238;10.394;2023-02-03T10:08:23;15.10;;;3.60;;
3309;SDS011;1667;53.238;10.394;2023-02-03T10:13:32;17.23;;;3.80;;
3309;SDS011;1667;53.238;10.394;2023-02-03T10:18:40;35.33;;;8.90;;
3309;SDS011;1667;53.238;10.394;2023-02-03T10:23:44;24.53;;;5.67;;
3309;SDS011;1667;53.238;10.394;2023-02-03T10:28:47;23.90;;;5.57;;
3309;SDS011;1667;53.238;10.394;2023-02-03T10:33:52;20.10;;;5.17;;
3309;SDS011;1667;53.238;10.394;2023-02-03T10:38:58;22.97;;;5.77;;
3309;SDS011;1667;53.238;10.394;2023-02-03T10:44:00;15.33;;;4.00;;
3309;SDS011;1667;53.238;10.394;2023-02-03T10:49:02;15.27;;;4.20;;
3309;SDS011;1667;53.238;10.394;2023-02-03T10:54:02;23.20;;;4.50;;
3309;SDS011;1667;53.238;10.394;2023-02-03T10:59:00;31.07;;;9.07;;
3309;SDS011;1667;53.238;10.394;2023-02-03T11:03:59;16.03;;;4.47;;
3309;SDS011;1667;53.238;10.394;2023-02-03T11:08:59;15.60;;;4.30;;
3309;SDS011;1667;53.238;10.394;2023-02-03T11:14:19;22.17;;;6.00;;
3309;SDS011;1667;53.238;10.394;2023-02-03T11:19:18;27.07;;;6.20;;
3309;SDS011;1667;53.238;10.394;2023-02-03T11:24:20;20.33;;;5.07;;
3309;SDS011;1667;53.238;10.394;2023-02-03T11:29:22;12.57;;;5.20;;
3309;SDS011;1667;53.238;10.394;2023-02-03T11:34:24;19.27;;;4.37;;
3309;SDS011;1667;53.238;10.394;2023-02-03T11:39:28;22.13;;;5.17;;
3309;SDS011;1667;53.238;10.394;2023-02-03T11:44:31;14.77;;;4.30;;
3309;SDS011;1667;53.238;10.394;2023-02-03T11:49:37;11.33;;;4.53;;
3309;SDS011;1667;53.238;10.394;2023-02-03T11:55:06;13.90;;;3.33;;
3309;SDS011;1667;53.238;10.394;2023-02-03T12:00:19;24.43;;;4.97;;
3309;SDS011;1667;53.238;10.394;2023-02-03T12:05:36;26.43;;;6.30;;
3309;SDS011;1667;53.238;10.394;2023-02-03T12:10:46;24.03;;;4.70;;
3309;SDS011;1667;53.238;10.394;2023-02-03T12:15:57;17.70;;;4.00;;
3309;SDS011;1667;53.238;10.394;2023-02-03T12:21:13;19.20;;;4.23;;
3309;SDS011;1667;53.238;10.394;2023-02-03T12:26:29;26.60;;;5.77;;
3309;SDS011;1667;53.238;10.394;2023-02-03T12:31:35;18.97;;;4.57;;
3309;SDS011;1667;53.238;10.394;2023-02-03T12:36:37;23.47;;;5.10;;
3309;SDS011;1667;53.238;10.394;2023-02-03T12:41:41;24.53;;;4.47;;
3309;SDS011;1667;53.238;10.394;2023-02-03T12:46:43;22.87;;;6.73;;
3309;SDS011;1667;53.238;10.394;2023-02-03T12:51:47;35.07;;;3.93;;
3309;SDS011;1667;53.238;10.394;2023-02-03T12:56:50;10.23;;;3.00;;
3309;SDS011;1667;53.238;10.394;2023-02-03T13:01:53;23.20;;;6.93;;
3309;SDS011;1667;53.238;10.394;2023-02-03T13:06:57;13.47;;;3.70;;
3309;SDS011;1667;53.238;10.394;2023-02-03T13:12:04;20.43;;;3.50;;
3309;SDS011;1667;53.238;10.394;2023-02-03T13:17:07;13.30;;;3.50;;
3309;SDS011;1667;53.238;10.394;2023-02-03T13:22:13;19.33;;;5.30;;
3309;SDS011;1667;53.238;10.394;2023-02-03T13:27:16;21.23;;;3.73;;
3309;SDS011;1667;53.238;10.394;2023-02-03T13:32:26;8.03;;;2.83;;
3309;SDS011;1667;53.238;10.394;2023-02-03T13:37:41;28.70;;;5.67;;
3309;SDS011;1667;53.238;10.394;2023-02-03T13:43:04;8.93;;;2.57;;
3309;SDS011;1667;53.238;10.394;2023-02-03T13:48:08;13.10;;;3.60;;
3309;SDS011;1667;53.238;10.394;2023-02-03T13:53:15;20.97;;;4.60;;
3309;SDS011;1667;53.238;10.394;2023-02-03T13:58:21;17.83;;;4.57;;
3309;SDS011;1667;53.238;10.394;2023-02-03T14:08:46;15.10;;;4.47;;
3309;SDS011;1667;53.238;10.394;2023-02-03T14:13:48;21.63;;;3.93;;
3309;SDS011;1667;53.238;10.394;2023-02-03T14:18:48;26.27;;;4.40;;
3309;SDS011;1667;53.238;10.394;2023-02-03T14:29:03;13.20;;;3.63;;
3309;SDS011;1667;53.238;10.394;2023-02-03T14:34:07;19.50;;;6.30;;
3309;SDS011;1667;53.238;10.394;2023-02-03T14:44:58;25.33;;;6.57;;
3309;SDS011;1667;53.238;10.394;2023-02-03T14:50:11;16.77;;;4.67;;
3309;SDS011;1667;53.238;10.394;2023-02-03T14:55:34;27.30;;;4.47;;
3309;SDS011;1667;53.238;10.394;2023-02-03T15:00:40;19.87;;;5.23;;
3309;SDS011;1667;53.238;10.394;2023-02-03T15:05:39;22.43;;;4.80;;
3309;SDS011;1667;53.238;10.394;2023-02-03T15:10:42;17.50;;;4.93;;
3309;SDS011;1667;53.238;10.394;2023-02-03T15:22:37;15.40;;;3.93;;
3309;SDS011;1667;53.238;10.394;2023-02-03T15:27:36;17.80;;;3.90;;
3309;SDS011;1667;53.238;10.394;2023-02-03T15:32:34;17.97;;;4.83;;
3309;SDS011;1667;53.238;10.394;2023-02-03T15:37:39;16.73;;;3.93;;
3309;SDS011;1667;53.238;10.394;2023-02-03T15:42:45;12.20;;;2.80;;
3309;SDS011;1667;53.238;10.394;2023-02-03T15:47:51;11.50;;;3.83;;
3309;SDS011;1667;53.238;10.394;2023-02-03T15:52:54;10.53;;;3.20;;
3309;SDS011;1667;53.238;10.394;2023-02-03T15:57:58;10.23;;;2.83;;
3309;SDS011;1667;53.238;10.394;2023-02-03T16:02:57;17.60;;;5.00;;
3309;SDS011;1667;53.238;10.394;2023-02-03T16:13:32;29.70;;;4.73;;
3309;SDS011;1667;53.238;10.394;2023-02-03T16:18:31;20.10;;;5.47;;
3309;SDS011;1667;53.238;10.394;2023-02-03T16:23:34;28.97;;;4.90;;
3309;SDS011;1667;53.238;10.394;2023-02-03T16:28:32;14.63;;;3.10;;
3309;SDS011;1667;53.238;10.394;2023-02-03T16:33:49;19.43;;;4.83;;
3309;SDS011;1667;53.238;10.394;2023-02-03T16:39:08;16.50;;;4.63;;
3309;SDS011;1667;53.238;10.394;2023-02-03T16:44:25;15.73;;;3.43;;
3309;SDS011;1667;53.238;10.394;2023-02-03T16:49:41;16.07;;;3.40;;
3309;SDS011;1667;53.238;10.394;2023-02-03T16:54:58;15.63;;;3.27;;
3309;SDS011;1667;53.238;10.394;2023-02-03T17:06:00;23.80;;;4.97;;
3309;SDS011;1667;53.238;10.394;2023-02-03T17:11:05;24.57;;;5.60;;
3309;SDS011;1667;53.238;10.394;2023-02-03T17:16:07;25.50;;;5.30;;
3309;SDS011;1667;53.238;10.394;2023-02-03T17:21:08;15.60;;;4.40;;
3309;SDS011;1667;53.238;10.394;2023-02-03T17:26:09;23.73;;;4.90;;
3309;SDS011;1667;53.238;10.394;2023-02-03T17:31:09;13.60;;;4.53;;
3309;SDS011;1667;53.238;10.394;2023-02-03T17:36:10;23.50;;;4.93;;
3309;SDS011;1667;53.238;10.394;2023-02-03T17:41:12;15.67;;;4.67;;
3309;SDS011;1667;53.238;10.394;2023-02-03T17:46:31;24.33;;;3.70;;
3309;SDS011;1667;53.238;10.394;2023-02-03T17:51:48;13.87;;;4.37;;
3309;SDS011;1667;53.238;10.394;2023-02-03T17:57:05;25.37;;;6.67;;
3309;SDS011;1667;53.238;10.394;2023-02-03T18:02:04;15.83;;;5.20;;
3309;SDS011;1667;53.238;10.394;2023-02-03T18:07:03;8.83;;;3.97;;
3309;SDS011;1667;53.238;10.394;2023-02-03T18:12:01;27.43;;;7.33;;
3309;SDS011;1667;53.238;10.394;2023-02-03T18:23:56;27.00;;;5.37;;
3309;SDS011;1667;53.238;10.394;2023-02-03T18:28:57;17.43;;;4.07;;
3309;SDS011;1667;53.238;10.394;2023-02-03T18:33:59;18.30;;;3.80;;
3309;SDS011;1667;53.238;10.394;2023-02-03T18:39:00;23.60;;;4.43;;
3309;SDS011;1667;53.238;10.394;2023-02-03T18:43:58;27.70;;;4.83;;
3309;SDS011;1667;53.238;10.394;2023-02-03T18:48:57;11.50;;;2.73;;
3309;SDS011;1667;53.238;10.394;2023-02-03T18:53:56;19.87;;;2.83;;
3309;SDS011;1667;53.238;10.394;2023-02-03T18:58:57;26.57;;;6.03;;
3309;SDS011;1667;53.238;10.394;2023-02-03T19:03:56;25.53;;;5.97;;
3309;SDS011;1667;53.238;10.394;2023-02-03T19:08:56;23.83;;;5.90;;
3309;SDS011;1667;53.238;10.394;2023-02-03T19:13:56;23.87;;;5.03;;
3309;SDS011;1667;53.238;10.394;2023-02-03T19:18:55;27.90;;;5.70;;
3309;SDS011;1667;53.238;10.394;2023-02-03T19:23:54;20.27;;;5.07;;
3309;SDS011;1667;53.238;10.394;2023-02-03T19:28:53;36.17;;;6.97;;
3309;SDS011;1667;53.238;10.394;2023-02-03T19:33:55;35.87;;;8.77;;
3309;SDS011;1667;53.238;10.394;2023-02-03T19:38:54;39.23;;;6.47;;
3309;SDS011;1667;53.238;10.394;2023-02-03T19:43:53;25.33;;;5.67;;
3309;SDS011;1667;53.238;10.394;2023-02-03T19:48:53;38.30;;;6.53;;
3309;SDS011;1667;53.238;10.394;2023-02-03T19:53:51;12.33;;;3.57;;
3309;SDS011;1667;53.238;10.394;2023-02-03T19:58:50;28.93;;;6.90;;
3309;SDS011;1667;53.238;10.394;2023-02-03T20:03:49;32.23;;;8.30;;
3309;SDS011;1667;53.238;10.394;2023-02-03T20:08:50;25.27;;;6.50;;
3309;SDS011;1667;53.238;10.394;2023-02-03T20:13:49;20.47;;;4.60;;
3309;SDS011;1667;53.238;10.394;2023-02-03T20:18:48;14.47;;;4.20;;
3309;SDS011;1667;53.238;10.394;2023-02-03T20:23:46;17.83;;;4.57;;
3309;SDS011;1667;53.238;10.394;2023-02-03T20:28:46;19.10;;;5.70;;
3309;SDS011;1667;53.238;10.394;2023-02-03T20:33:45;17.03;;;3.63;;
3309;SDS011;1667;53.238;10.394;2023-02-03T20:38:43;24.73;;;5.80;;
3309;SDS011;1667;53.238;10.394;2023-02-03T20:43:42;17.03;;;4.13;;
3309;SDS011;1667;53.238;10.394;2023-02-03T20:48:41;11.03;;;3.13;;
3309;SDS011;1667;53.238;10.394;2023-02-03T20:53:41;8.10;;;3.53;;
3309;SDS011;1667;53.238;10.394;2023-02-03T20:58:41;8.93;;;3.47;;
3309;SDS011;1667;53.238;10.394;2023-02-03T21:03:43;11.63;;;4.30;;
3309;SDS011;1667;53.238;10.394;2023-02-03T21:09:00;13.73;;;3.10;;
3309;SDS011;1667;53.238;10.394;2023-02-03T21:14:18;10.37;;;2.87;;
3309;SDS011;1667;53.238;10.394;2023-02-03T21:19:22;5.17;;;2.23;;
3309;SDS011;1667;53.238;10.394;2023-02-03T21:24:26;3.47;;;1.70;;
3309;SDS011;1667;53.238;10.394;2023-02-03T21:29:28;2.93;;;1.33;;
3309;SDS011;1667;53.238;10.394;2023-02-03T21:34:31;1.57;;;1.47;;
3309;SDS011;1667;53.238;10.394;2023-02-03T21:39:31;1.90;;;1.40;;
3309;SDS011;1667;53.238;10.394;2023-02-03T21:44:31;2.20;;;1.80;;
3309;SDS011;1667;53.238;10.394;2023-02-03T21:49:33;1.80;;;1.70;;
3309;SDS011;1667;53.238;10.394;2023-02-03T21:54:32;3.17;;;1.70;;
3309;SDS011;1667;53.238;10.394;2023-02-03T21:59:36;2.90;;;1.83;;
3309;SDS011;1667;53.238;10.394;2023-02-03T22:04:39;2.10;;;1.83;;
3309;SDS011;1667;53.238;10.394;2023-02-03T22:09:37;2.30;;;1.80;;
3309;SDS011;1667;53.238;10.394;2023-02-03T22:14:36;6.00;;;2.20;;
3309;SDS011;1667;53.238;10.394;2023-02-03T22:19:34;1.90;;;1.57;;
3309;SDS011;1667;53.238;10.394;2023-02-03T22:29:54;2.57;;;1.60;;
3309;SDS011;1667;53.238;10.394;2023-02-03T22:34:52;1.47;;;1.37;;
3309;SDS011;1667;53.238;10.394;2023-02-03T22:39:51;4.03;;;1.43;;
3309;SDS011;1667;53.238;10.394;2023-02-03T22:44:51;2.00;;;1.63;;
3309;SDS011;1667;53.238;10.394;2023-02-03T22:49:49;3.80;;;1.57;;
3309;SDS011;1667;53.238;10.394;2023-02-03T22:54:48;5.30;;;1.97;;
3309;SDS011;1667;53.238;10.394;2023-02-03T22:59:46;2.03;;;1.50;;
3309;SDS011;1667;53.238;10.394;2023-02-03T23:04:46;2.10;;;1.67;;
3309;SDS011;1667;53.238;10.394;2023-02-03T23:09:45;1.40;;;1.30;;
3309;SDS011;1667;53.238;10.394;2023-02-03T23:14:44;9.90;;;1.60;;
3309;SDS011;1667;53.238;10.394;2023-02-03T23:19:42;1.20;;;1.10;;
3309;SDS011;1667;53.238;10.394;2023-02-03T23:24:43;1.17;;;1.13;;
3309;SDS011;1667;53.238;10.394;2023-02-03T23:29:41;1.80;;;1.20;;
3309;SDS011;1667;53.238;10.394;2023-02-03T23:34:40;2.07;;;1.10;;
3309;SDS011;1667;53.238;10.394;2023-02-03T23:39:57;4.50;;;1.60;;
3309;SDS011;1667;53.238;10.394;2023-02-03T23:44:56;1.43;;;1.00;;
3309;SDS011;1667;53.238;10.394;2023-02-03T23:49:55;1.70;;;1.33;;
3309;SDS011;1667;53.238;10.394;2023-02-03T23:54:53;2.20;;;1.20;;
3309;SDS011;1667;53.238;10.394;2023-02-03T23:59:53;3.03;;;1.20;;
